Terminal Aerodrome Forecast
Issued by NWS

Home | Current Version | Previous Version | Text Only | Print | Product List | Glossary Off
Versions: 1 2 3 4 5 6 7 8 9 10 11 12 13 14 15 16 17 18 19 20 21 22 23

000
FTUS43 KBIS 262333
TAFMOT
TAF
KMOT 262333Z 2700/2724 30015KT P6SM SCT080
     FM270200 27008KT P6SM SCT080
     FM271500 27012KT P6SM FEW050 FEW250
     FM271700 28015G22KT P6SM VCSH BKN060
     FM272100 29016G24KT P6SM BKN090=

USA.gov is the U.S. government's official web portal to all federal, state and local government web resources and services.